createdAt,value
2022-10-06T00:04:44.394Z,99999.88
2022-10-06T00:09:47.055Z,99986.63
2022-10-06T00:14:51.270Z,99991.34
2022-10-06T00:19:53.961Z,100007.84
2022-10-06T00:24:56.730Z,100020.47
2022-10-06T00:30:00.841Z,100005.34
2022-10-06T00:35:04.045Z,99989.63
2022-10-06T00:40:09.758Z,100000.34
2022-10-06T00:45:13.793Z,100012.97
2022-10-06T00:50:16.579Z,100020.56
2022-10-06T00:55:20.233Z,100024.88
2022-10-06T01:00:24.201Z,100029.63
2022-10-06T01:05:29.402Z,100030.00
2022-10-06T01:10:32.125Z,100048.16
2022-10-06T01:15:36.421Z,100035.75
2022-10-06T01:20:39.367Z,100056.81
2022-10-06T01:25:43.554Z,100060.69
2022-10-06T01:30:52.469Z,100073.47
2022-10-06T01:35:57.270Z,100070.31
2022-10-06T01:41:01.450Z,100084.94
2022-10-06T01:46:04.953Z,100085.16
2022-10-06T01:51:08.634Z,100098.75
2022-10-06T01:56:14.000Z,100097.75
2022-10-06T02:01:17.646Z,100100.44
2022-10-06T02:06:21.141Z,100108.66
2022-10-06T02:11:25.233Z,100116.72
2022-10-06T02:16:28.376Z,100118.94
2022-10-06T02:21:31.627Z,100122.19
2022-10-06T02:26:35.725Z,100135.25
2022-10-06T02:31:38.666Z,100150.53
2022-10-06T02:36:41.418Z,100144.31
2022-10-06T02:41:46.507Z,100156.88
2022-10-06T02:46:49.666Z,100167.63
2022-10-06T02:51:53.631Z,100161.44
2022-10-06T02:56:58.012Z,100174.03
2022-10-06T03:02:02.307Z,100185.13
2022-10-06T03:07:05.244Z,100194.19
2022-10-06T03:12:13.601Z,100205.13
2022-10-06T03:17:19.601Z,100217.72
2022-10-06T03:22:27.331Z,100214.38
2022-10-06T03:27:33.764Z,100225.28
2022-10-06T03:32:39.358Z,100236.41
2022-10-06T03:37:43.515Z,100242.97
2022-10-06T03:42:47.773Z,100257.59
2022-10-06T03:47:51.094Z,100266.84
2022-10-06T03:52:53.915Z,100280.44
2022-10-06T03:57:58.433Z,100276.06
2022-10-06T04:03:01.223Z,100289.34
2022-10-06T04:08:03.917Z,100301.25
2022-10-06T04:13:08.150Z,100304.78
2022-10-06T04:18:11.239Z,100320.88
2022-10-06T04:23:15.884Z,100330.28
2022-10-06T04:28:20.361Z,100337.72
2022-10-06T04:33:23.308Z,100349.44
2022-10-06T04:38:26.202Z,100350.63
2022-10-06T04:43:30.839Z,100365.22
2022-10-06T04:48:34.747Z,100344.91
2022-10-06T04:53:37.690Z,100371.31
2022-10-06T04:58:42.938Z,100384.91
2022-10-06T05:03:47.633Z,100379.91
2022-10-06T05:08:51.454Z,100392.63
2022-10-06T05:13:57.360Z,100401.72
2022-10-06T05:19:01.450Z,100415.28
2022-10-06T05:24:04.468Z,100420.19
2022-10-06T05:29:08.592Z,100424.72
2022-10-06T05:34:12.813Z,100435.13
2022-10-06T05:39:16.145Z,100437.97
2022-10-06T05:44:24.321Z,100454.94
2022-10-06T05:49:27.174Z,100454.25
2022-10-06T05:54:37.022Z,100462.31
2022-10-06T05:59:43.122Z,100476.72
2022-10-06T06:04:45.892Z,100486.78
2022-10-06T06:09:49.603Z,100495.66
2022-10-06T06:15:11.365Z,100496.50
2022-10-06T06:20:22.481Z,100509.56
2022-10-06T06:25:26.098Z,100514.59
2022-10-06T06:30:30.860Z,100521.66
2022-10-06T06:35:34.863Z,100523.16
2022-10-06T06:40:41.188Z,100546.13
2022-10-06T06:45:45.690Z,100550.47
2022-10-06T06:50:59.244Z,100544.94
2022-10-06T06:56:05.540Z,100566.44
2022-10-06T07:01:14.127Z,100562.69
2022-10-06T07:06:18.378Z,100562.75
2022-10-06T07:11:23.888Z,100572.72
2022-10-06T07:16:46.630Z,100580.25
2022-10-06T07:22:09.090Z,100596.69
2022-10-06T07:27:11.967Z,100594.28
2022-10-06T07:32:16.326Z,100606.72
2022-10-06T07:37:19.894Z,100611.75
2022-10-06T07:42:23.001Z,100637.44
2022-10-06T07:47:27.154Z,100641.81
2022-10-06T07:52:32.523Z,100649.34
2022-10-06T07:57:35.712Z,100648.69
2022-10-06T08:02:40.063Z,100646.28
2022-10-06T08:07:42.856Z,100656.88
2022-10-06T08:17:54.878Z,100672.00
2022-10-06T08:22:57.867Z,100681.56
2022-10-06T08:28:00.663Z,100683.22
2022-10-06T08:33:05.591Z,100688.59
2022-10-06T08:38:08.299Z,100689.25
2022-10-06T08:43:16.378Z,100690.94
2022-10-06T08:48:29.874Z,100694.28
2022-10-06T08:53:38.145Z,100690.75
2022-10-06T08:58:47.914Z,100691.44
2022-10-06T09:03:53.938Z,100693.31
2022-10-06T09:08:59.767Z,100704.72
2022-10-06T09:14:06.400Z,100710.75
2022-10-06T09:19:15.531Z,100728.59
2022-10-06T09:24:19.846Z,100737.50
2022-10-06T09:29:22.630Z,100739.53
2022-10-06T09:34:40.285Z,100749.47
2022-10-06T09:39:44.677Z,100741.75
2022-10-06T09:44:54.878Z,100749.63
2022-10-06T09:50:07.128Z,100746.09
2022-10-06T09:55:15.919Z,100751.88
2022-10-06T10:00:29.346Z,100758.22
2022-10-06T10:05:34.889Z,100760.25
2022-10-06T10:10:38.267Z,100767.00
2022-10-06T10:15:53.488Z,100766.81
2022-10-06T10:20:59.376Z,100769.88
2022-10-06T10:26:15.224Z,100761.31
2022-10-06T10:31:21.119Z,100760.47
2022-10-06T10:36:31.952Z,100754.06
2022-10-06T10:41:41.409Z,100760.47
2022-10-06T10:46:47.633Z,100766.00
2022-10-06T10:51:54.476Z,100767.72
2022-10-06T10:56:57.209Z,100763.31
2022-10-06T11:02:01.327Z,100769.56
2022-10-06T11:07:12.067Z,100760.47
2022-10-06T11:12:20.990Z,100766.00
2022-10-06T11:17:44.015Z,100765.03
2022-10-06T11:22:52.691Z,100771.22
2022-10-06T11:28:03.122Z,100769.56
2022-10-06T11:33:14.194Z,100770.69
2022-10-06T11:38:25.542Z,100764.78
2022-10-06T11:43:33.602Z,100772.31
2022-10-06T11:48:36.352Z,100768.66
2022-10-06T11:53:41.306Z,100761.53
2022-10-06T11:59:11.813Z,100768.47
2022-10-06T12:04:18.533Z,100768.47
2022-10-06T12:09:32.436Z,100765.41
2022-10-06T12:20:13.197Z,100757.81
2022-10-06T12:25:25.043Z,100742.50
2022-10-06T12:30:31.922Z,100748.72
2022-10-06T12:35:36.276Z,100744.53
2022-10-06T12:40:49.249Z,100745.66
2022-10-06T12:45:57.483Z,100738.47
2022-10-06T12:51:05.348Z,100736.41
2022-10-06T12:56:17.617Z,100733.69
2022-10-06T13:01:21.447Z,100720.09
2022-10-06T13:06:25.401Z,100727.13
2022-10-06T13:11:29.719Z,100718.06
2022-10-06T13:16:34.163Z,100717.03
2022-10-06T13:21:37.222Z,100713.31
2022-10-06T13:26:41.998Z,100712.31
2022-10-06T13:31:51.828Z,100731.81
2022-10-06T13:36:55.940Z,100727.72
2022-10-06T13:42:03.306Z,100724.66
2022-10-06T13:47:08.476Z,100724.47
2022-10-06T13:52:17.599Z,100726.16
2022-10-06T13:57:41.766Z,100722.63
2022-10-06T14:02:45.472Z,100725.31
2022-10-06T14:07:48.904Z,100718.72
2022-10-06T14:12:52.943Z,100711.47
2022-10-06T14:17:57.301Z,100715.03
2022-10-06T14:23:00.046Z,100712.16
2022-10-06T14:28:04.114Z,100716.53
2022-10-06T14:33:06.862Z,100711.31
2022-10-06T14:38:09.559Z,100702.03
2022-10-06T14:43:13.619Z,100721.53
2022-10-06T14:48:16.418Z,100718.31
2022-10-06T14:53:19.133Z,100715.31
2022-10-06T14:58:23.207Z,100716.88
2022-10-06T15:03:26.031Z,100719.56
2022-10-06T15:08:30.642Z,100712.16
2022-10-06T15:13:35.931Z,100710.13
2022-10-06T15:18:42.578Z,100713.47
2022-10-06T15:23:46.108Z,100700.66
2022-10-06T15:29:02.702Z,100705.00
2022-10-06T15:34:09.310Z,100701.13
2022-10-06T15:39:13.397Z,100694.41
2022-10-06T15:44:19.465Z,100694.63
2022-10-06T15:49:23.629Z,100681.88
2022-10-06T15:54:27.632Z,100697.38
2022-10-06T15:59:32.432Z,100693.75
2022-10-06T16:04:48.477Z,100699.88
2022-10-06T16:09:52.397Z,100685.63
2022-10-06T16:14:56.571Z,100688.84
2022-10-06T16:19:59.204Z,100688.38
2022-10-06T16:25:01.924Z,100695.31
2022-10-06T16:30:07.688Z,100696.88
2022-10-06T16:35:14.704Z,100692.03
2022-10-06T16:40:22.506Z,100691.56
2022-10-06T16:45:26.571Z,100694.09
2022-10-06T16:50:29.314Z,100694.47
2022-10-06T16:55:31.994Z,100702.13
2022-10-06T17:00:35.991Z,100709.50
2022-10-06T17:05:38.691Z,100706.44
2022-10-06T17:10:41.368Z,100711.38
2022-10-06T17:15:45.450Z,100712.56
2022-10-06T17:20:54.689Z,100710.25
2022-10-06T17:26:05.587Z,100700.22
2022-10-06T17:31:09.987Z,100706.28
2022-10-06T17:36:15.127Z,100703.59
2022-10-06T17:41:19.438Z,100701.78
2022-10-06T17:46:24.175Z,100702.97
2022-10-06T17:51:29.008Z,100707.72
2022-10-06T17:56:35.009Z,100701.84
2022-10-06T18:01:39.056Z,100706.75
2022-10-06T18:06:41.838Z,100704.59
2022-10-06T18:11:48.163Z,100698.53
2022-10-06T18:16:56.441Z,100706.78
2022-10-06T18:22:01.018Z,100706.97
2022-10-06T18:27:05.815Z,100697.41
2022-10-06T18:37:32.801Z,100698.47
2022-10-06T18:42:35.874Z,100698.50
2022-10-06T18:47:57.612Z,100706.53
2022-10-06T18:53:00.248Z,100706.53
2022-10-06T18:58:04.584Z,100696.66
2022-10-06T19:03:11.228Z,100708.41
2022-10-06T19:08:13.921Z,100702.38
2022-10-06T19:13:16.660Z,100711.59
2022-10-06T19:18:20.775Z,100706.94
2022-10-06T19:23:23.473Z,100708.13
2022-10-06T19:28:28.421Z,100711.97
2022-10-06T19:33:32.989Z,100703.94
2022-10-06T19:38:38.249Z,100705.31
2022-10-06T19:43:40.981Z,100703.78
2022-10-06T19:48:45.039Z,100705.66
2022-10-06T19:53:49.711Z,100706.66
2022-10-06T19:58:53.055Z,100706.66
2022-10-06T20:03:57.222Z,100707.03
2022-10-06T20:09:24.984Z,100707.19
2022-10-06T20:14:27.854Z,100708.69
2022-10-06T20:19:31.950Z,100707.69
2022-10-06T20:24:35.371Z,100713.06
2022-10-06T20:29:38.077Z,100710.72
2022-10-06T20:34:42.230Z,100727.16
2022-10-06T20:40:02.339Z,100719.63
2022-10-06T20:45:05.562Z,100715.09
2022-10-06T20:50:10.797Z,100712.94
2022-10-06T20:55:14.493Z,100719.13
2022-10-06T21:00:17.968Z,100710.75
2022-10-06T21:05:22.244Z,100707.03
2022-10-06T21:10:25.079Z,100701.19
2022-10-06T21:15:28.051Z,100698.66
2022-10-06T21:20:32.252Z,100691.78
2022-10-06T21:25:37.939Z,100687.44
2022-10-06T21:30:41.171Z,100691.47
2022-10-06T21:35:45.410Z,100690.63
2022-10-06T21:40:48.274Z,100681.56
2022-10-06T21:46:05.053Z,100678.22
2022-10-06T21:51:15.572Z,100671.69
2022-10-06T21:56:18.583Z,100672.00
2022-10-06T22:01:23.551Z,100674.22
2022-10-06T22:06:28.245Z,100658.59
2022-10-06T22:11:32.521Z,100659.63
2022-10-06T22:16:36.636Z,100653.44
2022-10-06T22:21:42.364Z,100653.75
2022-10-06T22:26:45.778Z,100654.91
2022-10-06T22:31:49.329Z,100646.03
2022-10-06T22:36:53.672Z,100645.41
2022-10-06T22:41:56.562Z,100642.03
2022-10-06T22:46:59.445Z,100640.34
2022-10-06T22:52:03.707Z,100627.94
2022-10-06T22:57:07.124Z,100624.75
2022-10-06T23:02:10.007Z,100617.88
2022-10-06T23:07:14.244Z,100612.00
2022-10-06T23:12:17.107Z,100599.94
2022-10-06T23:17:19.979Z,100593.91
2022-10-06T23:22:24.274Z,100591.91
2022-10-06T23:27:27.166Z,100586.84
2022-10-06T23:32:30.312Z,100578.31
2022-10-06T23:37:34.533Z,100583.69
2022-10-06T23:42:37.475Z,100570.63
2022-10-06T23:47:40.397Z,100567.94
2022-10-06T23:52:44.775Z,100562.56
2022-10-06T23:57:47.694Z,100565.75
